Time;durP1;ratioP1;P1;durP2;ratioP2;P2;SDS_P1;SDS_P2;PMS_P1;PMS_P2;Temp;Humidity;BMP_temperature;BMP_pressure;BME280_temperature;BME280_humidity;BME280_pressure;Samples;Min_cycle;Max_cycle;Signal;HPM_P1;HPM_P2
2022/01/17 00:02:28;;;;;;;5.63;4.00;;;8.00;93.20;;;;;;5005298;28;20057;-71
2022/01/17 00:04:54;;;;;;;5.78;4.07;;;8.00;93.50;;;;;;5003503;28;20027;-71
2022/01/17 00:07:19;;;;;;;6.18;4.40;;;7.90;93.10;;;;;;4995171;28;20033;-71
2022/01/17 00:09:45;;;;;;;6.82;4.50;;;7.90;93.10;;;;;;4995978;28;20518;-71
2022/01/17 00:12:11;;;;;;;7.68;4.57;;;7.90;93.10;;;;;;4994999;28;20452;-72
2022/01/17 00:14:41;;;;;;;6.85;5.00;;;7.90;93.00;;;;;;4996677;28;20081;-71
2022/01/17 00:19:46;;;;;;;7.90;4.60;;;7.90;93.30;;;;;;5001030;28;20396;-71
2022/01/17 00:22:12;;;;;;;;;;;7.90;93.10;;;;;;4998491;28;20037;-72
2022/01/17 00:24:38;;;;;;;5.88;4.45;;;7.80;93.00;;;;;;5004846;28;19916;-71
2022/01/17 00:27:04;;;;;;;8.30;5.32;;;7.90;93.30;;;;;;4997911;28;20026;-71
2022/01/17 00:29:30;;;;;;;7.85;5.13;;;7.90;93.30;;;;;;5001650;28;21005;-71
2022/01/17 00:31:56;;;;;;;9.00;6.00;;;7.90;93.20;;;;;;5012039;28;20037;-71
2022/01/17 00:34:23;;;;;;;5.85;4.50;;;7.90;93.60;;;;;;5007459;28;20050;-71
2022/01/17 00:36:48;;;;;;;7.38;5.30;;;7.90;93.30;;;;;;4995681;28;20374;-71
2022/01/17 00:39:15;;;;;;;8.68;5.82;;;7.90;93.10;;;;;;4994035;28;20037;-71
2022/01/17 00:41:41;;;;;;;8.32;5.45;;;8.00;93.20;;;;;;4995246;28;20026;-71
2022/01/17 00:44:07;;;;;;;7.28;4.90;;;8.00;93.30;;;;;;5007084;28;20030;-72
2022/01/17 00:46:33;;;;;;;9.90;5.60;;;8.00;93.40;;;;;;5004401;28;20027;-71
2022/01/17 00:48:59;;;;;;;8.00;5.05;;;8.10;93.30;;;;;;5010812;28;20495;-71
2022/01/17 00:51:24;;;;;;;6.82;4.97;;;8.00;93.20;;;;;;4993491;28;20030;-72
2022/01/17 00:53:51;;;;;;;7.68;5.28;;;8.10;93.20;;;;;;4995850;28;20038;-71
2022/01/17 00:56:19;;;;;;;8.15;5.38;;;8.10;93.30;;;;;;4996254;28;20128;-71
2022/01/17 00:58:45;;;;;;;9.13;5.50;;;8.10;93.30;;;;;;4996074;28;20393;-72
2022/01/17 01:01:11;;;;;;;8.13;4.95;;;8.10;93.20;;;;;;4995984;28;20063;-72
2022/01/17 01:03:37;;;;;;;8.18;5.38;;;8.10;93.20;;;;;;5009705;28;20073;-71
2022/01/17 01:06:03;;;;;;;7.10;5.10;;;8.10;93.30;;;;;;4994758;28;20026;-72
2022/01/17 01:08:29;;;;;;;7.28;4.97;;;8.10;93.20;;;;;;4995909;28;20033;-72
2022/01/17 01:10:54;;;;;;;7.05;5.55;;;8.10;93.20;;;;;;4995196;28;20026;-71
2022/01/17 01:13:23;;;;;;;7.88;5.70;;;8.00;93.10;;;;;;4998475;28;20073;-72
2022/01/17 01:16:10;;;;;;;7.80;5.38;;;8.00;93.20;;;;;;5003622;28;20086;-71
2022/01/17 01:19:06;;;;;;;7.65;5.25;;;8.00;93.30;;;;;;5009137;28;20022;-71
2022/01/17 01:29:48;;;;;;;7.15;4.90;;;8.00;93.10;;;;;;4994999;28;20561;-71
2022/01/17 01:32:19;;;;;;;7.63;5.53;;;8.10;93.30;;;;;;4995196;28;20794;-71
2022/01/17 01:34:49;;;;;;;7.38;4.78;;;8.10;93.20;;;;;;4994888;28;20042;-71
2022/01/17 01:37:15;;;;;;;10.70;5.47;;;8.10;93.20;;;;;;4995060;28;20031;-71
2022/01/17 01:39:41;;;;;;;7.70;5.53;;;8.20;93.20;;;;;;4993756;28;20157;-71
2022/01/17 01:42:16;;;;;;;6.60;4.85;;;8.20;93.30;;;;;;5005601;28;20041;-71
2022/01/17 01:44:42;;;;;;;8.15;5.50;;;8.20;93.20;;;;;;5008868;28;20029;-71
2022/01/17 01:47:08;;;;;;;7.43;5.70;;;8.20;93.20;;;;;;4999376;28;20564;-71
2022/01/17 01:49:34;;;;;;;8.88;5.78;;;8.20;93.10;;;;;;4994595;28;20117;-71
2022/01/17 01:51:59;;;;;;;7.25;5.55;;;8.20;93.10;;;;;;4995135;28;20113;-71
2022/01/17 01:54:25;;;;;;;8.70;5.75;;;8.20;93.20;;;;;;4992913;28;20065;-71
2022/01/17 01:56:51;;;;;;;7.63;5.85;;;8.20;93.30;;;;;;4994174;28;20014;-71
2022/01/17 01:59:20;;;;;;;8.57;5.47;;;8.20;93.20;;;;;;4993375;28;20030;-71
2022/01/17 02:01:46;;;;;;;8.10;5.95;;;8.30;93.20;;;;;;4998097;28;20026;-71
2022/01/17 02:04:13;;;;;;;7.13;5.15;;;8.30;93.30;;;;;;5007240;28;20037;-71
2022/01/17 02:06:39;;;;;;;7.35;5.32;;;8.30;93.30;;;;;;5008583;28;20400;-71
2022/01/17 02:09:05;;;;;;;8.35;5.10;;;8.30;93.30;;;;;;4993768;28;20029;-71
2022/01/17 02:11:35;;;;;;;7.15;5.47;;;8.40;93.40;;;;;;5007787;28;20030;-71
2022/01/17 02:14:02;;;;;;;6.70;4.93;;;8.40;93.40;;;;;;5006292;28;20082;-71
2022/01/17 02:16:28;;;;;;;6.38;4.97;;;8.40;93.40;;;;;;5005372;28;20042;-71
2022/01/17 02:18:53;;;;;;;7.30;4.75;;;8.40;93.40;;;;;;4994606;28;20416;-71
2022/01/17 02:21:32;;;;;;;7.07;4.80;;;8.50;93.60;;;;;;4991227;28;20089;-71
2022/01/17 02:23:58;;;;;;;6.03;5.00;;;8.50;93.40;;;;;;4998570;28;20027;-71
2022/01/17 02:26:25;;;;;;;6.93;4.95;;;8.50;93.40;;;;;;4997602;28;20058;-71
2022/01/17 02:28:53;;;;;;;5.75;4.25;;;8.50;93.40;;;;;;4996210;28;20034;-71
2022/01/17 02:31:21;;;;;;;7.65;5.03;;;8.50;93.40;;;;;;4996850;28;20030;-71
2022/01/17 02:33:47;;;;;;;9.30;5.50;;;8.50;93.50;;;;;;4993138;28;20041;-71
2022/01/17 02:36:12;;;;;;;6.13;4.82;;;8.50;93.70;;;;;;4996423;28;20113;-71
2022/01/17 02:38:40;;;;;;;6.18;5.18;;;8.50;93.80;;;;;;5008004;28;20038;-71
2022/01/17 02:41:06;;;;;;;5.88;4.25;;;8.50;93.70;;;;;;5008293;28;20025;-71
2022/01/17 02:43:32;;;;;;;5.72;4.15;;;8.50;93.40;;;;;;5004608;28;20030;-71
2022/01/17 02:48:33;;;;;;;5.78;4.32;;;8.50;93.70;;;;;;4992354;28;20094;-71
2022/01/17 02:51:00;;;;;;;6.63;4.90;;;8.50;93.70;;;;;;4994291;28;20050;-71
2022/01/17 02:53:26;;;;;;;6.85;4.95;;;8.50;93.60;;;;;;4994608;28;20044;-71
2022/01/17 02:55:57;;;;;;;7.70;5.18;;;8.50;93.60;;;;;;4994610;28;20054;-72
2022/01/17 02:58:25;;;;;;;6.38;4.53;;;8.50;93.60;;;;;;4994911;28;20041;-71
2022/01/17 03:00:53;;;;;;;5.55;4.50;;;8.50;93.60;;;;;;4998053;28;20058;-72
2022/01/17 03:03:25;;;;;;;6.72;4.63;;;8.50;93.60;;;;;;4996050;28;20500;-71
2022/01/17 03:05:52;;;;;;;5.80;4.72;;;8.60;93.70;;;;;;5000732;28;20557;-71
2022/01/17 03:08:20;;;;;;;7.78;5.07;;;8.60;93.60;;;;;;5007836;28;20026;-72
2022/01/17 03:10:49;;;;;;;7.07;5.30;;;8.60;93.80;;;;;;5010544;28;20025;-72
2022/01/17 03:13:18;;;;;;;6.85;5.35;;;8.50;93.50;;;;;;5005598;28;20027;-71
2022/01/17 03:15:53;;;;;;;6.82;5.22;;;8.50;93.50;;;;;;4996852;28;20507;-71
2022/01/17 03:18:18;;;;;;;5.85;4.28;;;8.50;93.60;;;;;;5006706;28;20038;-71
2022/01/17 03:20:44;;;;;;;6.07;4.13;;;8.60;93.70;;;;;;4998070;28;20038;-71
2022/01/17 03:23:10;;;;;;;5.30;3.90;;;8.60;93.70;;;;;;4997833;28;20026;-71
2022/01/17 03:25:36;;;;;;;4.82;3.78;;;8.60;93.70;;;;;;4997988;28;20525;-71
2022/01/17 03:28:03;;;;;;;5.70;4.00;;;8.60;93.60;;;;;;4999053;28;20408;-71
2022/01/17 03:30:31;;;;;;;4.60;2.92;;;8.60;93.70;;;;;;4995046;28;20034;-71
2022/01/17 03:32:56;;;;;;;4.22;2.92;;;8.60;93.60;;;;;;4998867;28;20078;-72
2022/01/17 03:35:22;;;;;;;3.75;3.00;;;8.60;93.70;;;;;;5000580;28;20062;-71
2022/01/17 03:37:48;;;;;;;4.28;2.97;;;8.70;93.70;;;;;;5005946;28;20457;-72
2022/01/17 03:40:14;;;;;;;3.50;2.63;;;8.70;93.70;;;;;;4998138;28;20037;-72
2022/01/17 03:42:40;;;;;;;3.47;2.70;;;8.70;93.60;;;;;;4996451;28;20022;-71
2022/01/17 03:45:07;;;;;;;5.00;2.78;;;8.70;93.60;;;;;;4994882;28;20030;-71
2022/01/17 03:47:43;;;;;;;3.30;2.65;;;8.70;93.60;;;;;;4998758;28;20019;-71
2022/01/17 03:50:14;;;;;;;3.95;2.67;;;8.70;93.60;;;;;;4997731;28;20084;-71
2022/01/17 03:52:40;;;;;;;3.92;2.83;;;8.70;93.60;;;;;;4996904;28;20100;-71
2022/01/17 03:55:08;;;;;;;4.30;2.75;;;8.70;93.70;;;;;;4997481;28;20034;-71
2022/01/17 03:57:33;;;;;;;3.13;2.33;;;8.70;93.70;;;;;;4995386;28;20366;-71
2022/01/17 03:59:59;;;;;;;3.22;2.60;;;8.70;93.60;;;;;;4996363;28;20034;-71
2022/01/17 04:02:25;;;;;;;4.32;2.55;;;8.70;93.60;;;;;;5005092;28;20030;-72
2022/01/17 04:04:51;;;;;;;2.72;2.30;;;8.70;93.60;;;;;;5004349;28;20077;-71
2022/01/17 04:07:16;;;;;;;3.25;2.35;;;8.70;93.60;;;;;;4998944;28;20030;-72
2022/01/17 04:09:42;;;;;;;3.50;2.10;;;8.70;93.60;;;;;;5012303;28;20060;-72
2022/01/17 04:12:08;;;;;;;2.20;1.90;;;8.70;93.60;;;;;;5011306;28;20491;-72
2022/01/17 04:14:36;;;;;;;2.60;2.28;;;8.70;93.60;;;;;;5001100;28;20071;-73
2022/01/17 04:17:03;;;;;;;2.33;2.08;;;8.70;93.60;;;;;;4997023;28;20161;-73
2022/01/17 04:19:28;;;;;;;2.72;2.22;;;8.60;93.50;;;;;;4998044;28;20101;-72
2022/01/17 04:21:54;;;;;;;3.78;2.47;;;8.60;93.60;;;;;;4997026;28;20026;-72
2022/01/17 04:24:20;;;;;;;3.40;2.38;;;8.60;93.70;;;;;;4993181;28;20036;-71
2022/01/17 04:26:45;;;;;;;4.97;2.83;;;8.60;93.60;;;;;;4996719;28;20034;-72
2022/01/17 04:29:11;;;;;;;2.55;2.30;;;8.60;93.60;;;;;;4996173;28;20539;-71
2022/01/17 04:31:37;;;;;;;3.03;2.65;;;8.60;93.60;;;;;;4996768;28;20035;-71
2022/01/17 04:34:03;;;;;;;4.28;2.63;;;8.60;93.60;;;;;;4996379;28;20077;-71
2022/01/17 04:36:29;;;;;;;3.00;2.65;;;8.60;93.60;;;;;;4994454;28;20030;-71
2022/01/17 04:38:55;;;;;;;4.78;2.72;;;8.60;93.50;;;;;;4996069;28;20038;-71
2022/01/17 04:41:27;;;;;;;3.17;2.42;;;8.50;93.50;;;;;;4996444;28;20026;-71
2022/01/17 04:45:06;;;;;;;3.13;2.57;;;8.50;93.70;;;;;;4995917;28;20026;-72
2022/01/17 04:46:41;;;;;;;3.47;2.38;;;8.50;93.70;;;;;;4996998;28;20783;-71
2022/01/17 04:49:07;;;;;;;3.97;2.58;;;8.50;93.70;;;;;;4996334;28;20092;-71
2022/01/17 04:51:33;;;;;;;3.53;2.85;;;8.50;93.80;;;;;;4994301;28;20029;-71
2022/01/17 04:54:22;;;;;;;2.88;2.58;;;8.50;93.80;;;;;;4995606;28;20042;-72
2022/01/17 04:56:44;;;;;;;3.47;2.70;;;8.50;93.70;;;;;;4995552;28;20039;-71
2022/01/17 04:59:10;;;;;;;4.00;3.00;;;8.50;93.80;;;;;;4995852;28;20026;-71
2022/01/17 05:01:35;;;;;;;4.03;3.15;;;8.50;93.70;;;;;;4997718;28;20109;-71
2022/01/17 05:04:01;;;;;;;5.10;3.30;;;8.50;93.70;;;;;;5011226;28;20127;-71
2022/01/17 05:06:27;;;;;;;5.70;3.83;;;8.50;93.50;;;;;;5008520;28;20157;-71
2022/01/17 05:08:52;;;;;;;6.07;4.60;;;8.50;93.60;;;;;;4998789;28;20026;-71
2022/01/17 05:11:18;;;;;;;5.72;4.35;;;8.40;93.60;;;;;;4998493;28;20030;-72
2022/01/17 05:13:48;;;;;;;5.60;4.43;;;8.40;93.60;;;;;;4998626;28;20066;-71
2022/01/17 05:16:15;;;;;;;5.07;3.67;;;8.50;93.70;;;;;;4997326;28;20014;-71
2022/01/17 05:21:06;;;;;;;7.18;4.20;;;8.50;93.80;;;;;;4997368;28;20038;-71
2022/01/17 05:23:32;;;;;;;7.30;4.60;;;8.50;93.70;;;;;;5004047;28;20037;-71
2022/01/17 05:25:58;;;;;;;6.72;4.68;;;8.50;93.70;;;;;;5002032;28;20034;-71
2022/01/17 05:28:23;;;;;;;6.47;4.10;;;8.50;93.70;;;;;;4997142;28;20102;-71
2022/01/17 05:30:49;;;;;;;5.45;3.72;;;8.60;93.70;;;;;;4993984;28;20072;-71
2022/01/17 05:33:14;;;;;;;5.85;4.18;;;8.60;93.70;;;;;;4997362;28;20488;-71
2022/01/17 05:35:40;;;;;;;6.22;4.47;;;8.60;93.70;;;;;;4995316;28;20421;-71
2022/01/17 05:38:06;;;;;;;4.97;3.83;;;8.50;93.60;;;;;;4995537;28;20022;-71
2022/01/17 05:40:31;;;;;;;6.22;4.13;;;8.50;93.60;;;;;;4995110;28;20113;-71
2022/01/17 05:42:57;;;;;;;7.10;4.60;;;8.50;93.70;;;;;;4995735;28;20400;-71
2022/01/17 05:45:23;;;;;;;6.57;4.13;;;8.50;93.70;;;;;;4992973;28;20042;-71
2022/01/17 05:47:48;;;;;;;6.40;4.85;;;8.50;93.70;;;;;;4995423;28;20034;-71
2022/01/17 05:50:16;;;;;;;7.07;4.97;;;8.50;93.60;;;;;;4995385;28;20033;-71
2022/01/17 05:52:42;;;;;;;5.82;4.70;;;8.50;93.60;;;;;;4995347;28;20034;-71
2022/01/17 05:55:11;;;;;;;8.15;5.15;;;8.50;93.70;;;;;;4995167;28;20038;-71
2022/01/17 05:57:36;;;;;;;6.68;4.80;;;8.50;93.80;;;;;;5009342;28;20376;-71
2022/01/17 06:00:07;;;;;;;7.65;4.95;;;8.50;93.60;;;;;;4994784;28;20029;-71
2022/01/17 06:02:32;;;;;;;7.55;5.18;;;8.50;93.60;;;;;;4995126;28;20172;-71
2022/01/17 06:04:58;;;;;;;6.60;4.82;;;8.50;93.70;;;;;;4995341;28;20790;-71
2022/01/17 06:07:24;;;;;;;7.00;4.75;;;8.50;93.70;;;;;;4995142;28;20034;-71
2022/01/17 06:09:49;;;;;;;8.13;5.35;;;8.50;93.70;;;;;;4994331;28;20077;-71
2022/01/17 06:12:15;;;;;;;6.93;4.75;;;8.50;93.80;;;;;;4992870;28;20033;-71
2022/01/17 06:14:41;;;;;;;8.32;5.05;;;8.50;93.80;;;;;;4993699;28;20061;-71
2022/01/17 06:17:07;;;;;;;7.63;5.18;;;8.50;93.90;;;;;;4995166;28;20022;-71
2022/01/17 06:19:32;;;;;;;7.65;5.13;;;8.60;93.80;;;;;;4995290;28;20552;-71
2022/01/17 06:21:58;;;;;;;6.70;4.55;;;8.60;93.80;;;;;;4993671;28;20105;-71
2022/01/17 06:24:24;;;;;;;8.00;4.85;;;8.60;93.80;;;;;;4992360;28;20655;-71
2022/01/17 06:26:50;;;;;;;7.70;5.15;;;8.60;93.80;;;;;;4997581;28;20445;-71
2022/01/17 06:29:16;;;;;;;6.80;4.93;;;8.60;93.70;;;;;;4997703;28;20117;-71
2022/01/17 06:31:43;;;;;;;7.03;4.85;;;8.60;93.70;;;;;;4997710;28;20537;-70
2022/01/17 06:34:10;;;;;;;7.88;5.00;;;8.60;93.70;;;;;;4996990;28;20117;-71
2022/01/17 06:36:36;;;;;;;6.80;4.85;;;8.60;93.80;;;;;;4999345;28;20032;-70
2022/01/17 06:39:03;;;;;;;7.00;4.95;;;8.60;93.70;;;;;;5000289;28;20034;-71
2022/01/17 06:41:29;;;;;;;7.55;5.10;;;8.60;93.70;;;;;;5000372;28;20022;-71
2022/01/17 06:43:55;;;;;;;7.68;5.47;;;8.60;93.70;;;;;;5000211;28;20030;-71
2022/01/17 06:46:21;;;;;;;7.53;5.15;;;8.60;93.70;;;;;;5000907;28;20056;-70
2022/01/17 06:48:47;;;;;;;9.30;5.15;;;8.60;93.80;;;;;;4997665;28;20031;-71
2022/01/17 06:51:14;;;;;;;7.57;4.78;;;8.70;93.90;;;;;;4998829;28;20022;-71
2022/01/17 06:53:41;;;;;;;7.45;5.30;;;8.70;93.80;;;;;;4998163;28;20038;-70
2022/01/17 06:56:07;;;;;;;7.72;5.07;;;8.70;93.80;;;;;;4998372;28;20034;-70
2022/01/17 06:58:35;;;;;;;6.78;4.80;;;8.70;93.70;;;;;;4998399;28;20512;-70
2022/01/17 07:01:00;;;;;;;6.75;4.80;;;8.70;93.70;;;;;;4998609;28;20021;-70
2022/01/17 07:03:26;;;;;;;7.40;4.85;;;8.70;93.70;;;;;;4996235;28;20034;-70
2022/01/17 07:05:52;;;;;;;7.55;5.15;;;8.70;93.70;;;;;;4998024;28;20022;-70
2022/01/17 07:08:17;;;;;;;6.88;4.60;;;8.70;93.80;;;;;;4998090;28;20038;-70
2022/01/17 07:10:43;;;;;;;7.40;4.93;;;8.70;93.90;;;;;;4997162;28;20464;-70
2022/01/17 07:13:10;;;;;;;6.97;4.60;;;8.80;93.90;;;;;;4998325;28;20504;-71
2022/01/17 07:15:35;;;;;;;7.32;4.70;;;8.80;93.80;;;;;;4996417;28;20034;-75
2022/01/17 07:18:02;;;;;;;8.50;5.50;;;8.80;93.90;;;;;;4997775;28;20084;-76
2022/01/17 07:20:28;;;;;;;8.45;5.05;;;8.80;93.80;;;;;;4998041;28;20405;-75
2022/01/17 07:22:53;;;;;;;9.30;5.93;;;8.80;93.70;;;;;;4997838;28;20489;-74
2022/01/17 07:25:19;;;;;;;8.65;5.22;;;8.80;93.70;;;;;;4998234;28;20032;-74
2022/01/17 07:27:45;;;;;;;9.07;6.03;;;8.80;93.80;;;;;;4997117;28;20038;-76
2022/01/17 07:30:11;;;;;;;10.20;6.10;;;8.80;93.90;;;;;;4996484;28;20022;-76
2022/01/17 07:32:37;;;;;;;10.15;5.63;;;8.70;93.90;;;;;;5001065;28;20026;-76
2022/01/17 07:35:05;;;;;;;9.68;5.78;;;8.80;93.90;;;;;;5000213;28;20100;-72
2022/01/17 07:37:31;;;;;;;11.63;6.10;;;8.80;93.90;;;;;;5000189;28;20030;-71
2022/01/17 07:39:56;;;;;;;12.52;7.00;;;8.80;93.90;;;;;;4996731;28;20057;-74
2022/01/17 07:42:22;;;;;;;10.90;6.35;;;8.80;93.90;;;;;;4999055;28;20108;-73
2022/01/17 07:44:53;;;;;;;12.75;6.32;;;8.80;93.80;;;;;;4996490;28;20022;-74
2022/01/17 07:47:27;;;;;;;9.45;6.10;;;8.80;93.80;;;;;;4997495;28;20026;-77
2022/01/17 07:49:53;;;;;;;9.70;6.05;;;8.90;93.90;;;;;;5002124;28;20064;-76
2022/01/17 07:52:19;;;;;;;9.80;5.82;;;8.90;93.90;;;;;;5008457;28;20134;-75
2022/01/17 07:54:47;;;;;;;11.32;6.30;;;8.80;93.90;;;;;;4995879;28;20112;-75
2022/01/17 07:57:14;;;;;;;8.25;5.10;;;8.90;93.80;;;;;;5020471;28;20022;-74
2022/01/17 07:59:40;;;;;;;7.53;5.57;;;8.90;93.90;;;;;;5019582;28;20029;-73
2022/01/17 08:02:06;;;;;;;8.85;5.43;;;8.90;93.90;;;;;;5018824;28;20036;-73
2022/01/17 08:04:32;;;;;;;7.90;5.50;;;8.90;94.00;;;;;;5019603;28;20021;-72
2022/01/17 08:06:58;;;;;;;7.25;4.60;;;8.90;94.00;;;;;;5018581;28;20028;-72
2022/01/17 08:09:29;;;;;;;5.82;3.95;;;9.00;93.90;;;;;;5023071;28;20108;-72
2022/01/17 08:11:58;;;;;;;6.70;3.85;;;9.00;93.90;;;;;;5020634;28;20030;-72
2022/01/17 08:14:24;;;;;;;5.70;3.65;;;9.00;93.90;;;;;;5017808;28;20042;-72
2022/01/17 08:16:51;;;;;;;5.07;2.90;;;8.90;93.70;;;;;;5021291;28;20018;-73
2022/01/17 08:19:17;;;;;;;5.05;3.40;;;8.90;93.70;;;;;;5021065;28;20053;-73
2022/01/17 08:21:43;;;;;;;3.85;2.90;;;8.90;93.80;;;;;;4994540;28;20068;-73
2022/01/17 08:24:08;;;;;;;3.05;2.40;;;8.90;93.90;;;;;;4994775;28;20396;-73
2022/01/17 08:26:37;;;;;;;3.20;2.50;;;8.90;93.90;;;;;;5009879;28;20026;-74
2022/01/17 08:29:02;;;;;;;3.50;2.47;;;8.90;93.70;;;;;;5012794;28;20026;-73
2022/01/17 08:31:28;;;;;;;3.35;2.45;;;8.90;93.70;;;;;;5021004;28;20021;-73
2022/01/17 08:33:54;;;;;;;4.07;2.45;;;8.90;93.80;;;;;;5017971;28;20575;-74
2022/01/17 08:36:20;;;;;;;3.72;2.17;;;8.90;93.90;;;;;;5000257;28;20116;-75
2022/01/17 08:38:47;;;;;;;3.38;2.35;;;8.90;93.90;;;;;;4997700;28;20116;-74
2022/01/17 08:41:13;;;;;;;3.90;2.70;;;9.00;93.90;;;;;;4998079;28;20101;-73
2022/01/17 08:43:39;;;;;;;3.22;2.47;;;9.00;93.80;;;;;;5003148;28;20504;-75
2022/01/17 08:46:06;;;;;;;3.13;2.47;;;9.00;93.80;;;;;;5010058;28;20036;-73
2022/01/17 08:48:32;;;;;;;3.92;2.30;;;9.00;93.80;;;;;;5004961;28;20026;-74
2022/01/17 08:50:58;;;;;;;3.30;2.38;;;9.00;93.80;;;;;;5007423;28;20045;-74
2022/01/17 08:53:23;;;;;;;4.95;3.00;;;9.00;93.80;;;;;;5006560;28;20026;-74
2022/01/17 08:55:49;;;;;;;4.03;2.80;;;9.10;93.90;;;;;;5005348;28;20089;-74
2022/01/17 08:58:15;;;;;;;4.03;2.53;;;9.10;93.90;;;;;;5000290;28;20408;-74
2022/01/17 09:00:41;;;;;;;5.00;3.10;;;9.10;93.80;;;;;;5022784;28;20025;-76
2022/01/17 09:03:07;;;;;;;4.32;2.92;;;9.10;93.70;;;;;;5015627;28;20109;-74
2022/01/17 09:05:34;;;;;;;3.65;2.83;;;9.10;93.60;;;;;;5008708;28;20030;-76
2022/01/17 09:08:02;;;;;;;3.80;2.72;;;9.10;93.60;;;;;;5000449;28;20530;-77
2022/01/17 09:10:28;;;;;;;3.28;2.45;;;9.10;93.60;;;;;;5017304;28;20032;-76
2022/01/17 09:12:54;;;;;;;3.60;2.80;;;9.10;93.60;;;;;;5004117;28;20400;-70
2022/01/17 09:15:20;;;;;;;5.53;3.72;;;9.10;93.70;;;;;;5012052;28;20116;-69
2022/01/17 09:17:46;;;;;;;4.95;3.50;;;9.10;93.80;;;;;;4999153;28;20117;-69
2022/01/17 09:20:12;;;;;;;5.82;3.92;;;9.10;93.60;;;;;;4998516;28;20030;-69
2022/01/17 09:22:38;;;;;;;4.90;3.58;;;9.10;93.60;;;;;;5000512;28;20041;-68
2022/01/17 09:25:06;;;;;;;5.07;3.83;;;9.10;93.60;;;;;;4995630;28;20022;-78
2022/01/17 09:27:33;;;;;;;5.03;3.72;;;9.10;93.70;;;;;;4998523;28;20071;-75
2022/01/17 09:29:59;;;;;;;5.75;3.97;;;9.10;93.60;;;;;;5007826;28;20030;-76
2022/01/17 09:32:24;;;;;;;5.55;4.00;;;9.10;93.70;;;;;;5005712;28;20034;-76
2022/01/17 09:34:50;;;;;;;4.75;3.67;;;9.10;93.70;;;;;;5007370;28;20566;-77
2022/01/17 09:37:16;;;;;;;6.32;4.38;;;9.10;93.70;;;;;;5007022;28;20023;-78
2022/01/17 09:39:42;;;;;;;6.85;4.75;;;9.10;93.50;;;;;;5009780;28;20939;-78
2022/01/17 09:42:09;;;;;;;6.20;4.50;;;9.20;93.70;;;;;;5006621;28;20026;-77
2022/01/17 09:44:36;;;;;;;5.07;4.30;;;9.20;93.70;;;;;;5001396;28;20180;-77
2022/01/17 09:47:08;;;;;;;5.55;4.13;;;9.20;93.60;;;;;;5000711;28;20065;-74
2022/01/17 09:49:37;;;;;;;6.47;4.10;;;9.20;93.60;;;;;;5006844;28;20027;-78
2022/01/17 09:54:52;;;;;;;5.63;4.32;;;9.40;93.70;;;;;;4995219;28;20036;-75
2022/01/17 09:57:18;;;;;;;6.00;4.07;;;9.40;93.40;;;;;;4992771;28;20117;-70
2022/01/17 09:59:44;;;;;;;5.82;3.83;;;9.40;94.00;;;;;;4995457;28;20081;-70
2022/01/17 10:02:13;;;;;;;5.72;3.78;;;9.50;93.70;;;;;;5001256;28;20063;-70
2022/01/17 10:04:39;;;;;;;4.28;3.17;;;9.50;93.40;;;;;;5005166;28;20026;-71
2022/01/17 10:07:07;;;;;;;5.20;3.40;;;9.60;93.50;;;;;;5000294;28;20492;-70
2022/01/17 10:09:34;;;;;;;3.92;2.90;;;9.60;93.50;;;;;;4992756;28;20034;-70
2022/01/17 10:12:00;;;;;;;4.53;3.28;;;9.70;93.40;;;;;;5007084;28;20033;-71
2022/01/17 10:14:27;;;;;;;3.78;2.95;;;9.70;93.40;;;;;;5005146;28;20385;-70
2022/01/17 10:16:53;;;;;;;4.20;3.28;;;9.70;93.20;;;;;;5005736;28;20026;-71
2022/01/17 10:19:22;;;;;;;4.03;3.10;;;9.80;93.30;;;;;;5005998;28;20591;-71
2022/01/17 10:21:51;;;;;;;3.83;2.70;;;9.80;93.30;;;;;;5008734;28;20061;-72
2022/01/17 10:24:42;;;;;;;4.07;2.88;;;9.90;93.20;;;;;;5006975;28;20014;-72
2022/01/17 10:27:29;;;;;;;3.60;2.63;;;9.90;93.10;;;;;;4998952;28;20018;-71
2022/01/17 10:35:36;;;;;;;3.10;2.45;;;10.10;93.20;;;;;;5005991;28;20061;-71
2022/01/17 10:38:04;;;;;;;2.97;2.35;;;10.10;93.20;;;;;;5005882;28;20101;-70
2022/01/17 10:40:43;;;;;;;3.75;2.45;;;10.10;92.90;;;;;;5006031;28;20031;-70
2022/01/17 10:43:34;;;;;;;3.17;2.47;;;10.00;92.70;;;;;;5002957;28;20088;-69
2022/01/17 10:46:02;;;;;;;3.83;2.55;;;10.00;92.90;;;;;;4996115;28;20060;-70
2022/01/17 10:48:42;;;;;;;3.80;2.78;;;10.00;92.80;;;;;;5008047;28;20401;-71
2022/01/17 10:51:09;;;;;;;4.40;3.08;;;10.00;93.00;;;;;;5006509;28;20026;-70
2022/01/17 10:53:37;;;;;;;4.07;3.08;;;10.00;92.90;;;;;;5005983;28;20037;-70
2022/01/17 10:56:08;;;;;;;4.93;2.97;;;10.00;92.90;;;;;;5000780;28;20038;-70
2022/01/17 10:58:36;;;;;;;3.50;2.58;;;10.10;93.00;;;;;;5001331;28;20029;-78
2022/01/17 11:01:11;;;;;;;4.78;3.15;;;10.10;92.90;;;;;;5009315;28;20048;-75
2022/01/17 11:03:39;;;;;;;4.40;2.78;;;10.10;92.90;;;;;;5009319;28;20562;-78
2022/01/17 11:06:13;;;;;;;4.43;2.80;;;10.10;93.00;;;;;;5005084;28;20029;-77
2022/01/17 11:08:40;;;;;;;4.00;2.85;;;10.20;92.90;;;;;;5010585;28;20105;-78
2022/01/17 11:11:08;;;;;;;4.30;3.25;;;10.20;92.90;;;;;;5005121;28;20033;-78
2022/01/17 11:13:38;;;;;;;4.07;2.83;;;10.30;92.90;;;;;;4996713;28;20042;-78
2022/01/17 11:16:11;;;;;;;4.20;3.13;;;10.30;92.90;;;;;;5007791;28;20496;-78
2022/01/17 11:18:40;;;;;;;3.17;2.60;;;10.30;92.60;;;;;;5010857;28;20404;-78
2022/01/17 11:21:14;;;;;;;4.28;2.58;;;10.30;92.70;;;;;;5017563;28;20025;-76
2022/01/17 11:23:45;;;;;;;4.47;2.80;;;10.30;92.60;;;;;;5019489;28;20025;-75
2022/01/17 11:26:12;;;;;;;3.88;2.75;;;10.40;92.70;;;;;;5009873;28;20036;-78
2022/01/17 11:28:38;;;;;;;3.53;2.50;;;10.50;92.60;;;;;;5011687;28;20044;-78
2022/01/17 11:31:06;;;;;;;3.47;2.58;;;10.50;92.50;;;;;;5010571;28;20530;-74
2022/01/17 11:33:33;;;;;;;3.67;2.63;;;10.70;92.60;;;;;;5005788;28;20365;-75
2022/01/17 11:35:59;;;;;;;3.05;2.58;;;10.80;92.50;;;;;;5007838;28;20041;-74
2022/01/17 11:38:34;;;;;;;3.38;2.75;;;10.90;92.20;;;;;;5008110;28;20113;-73
2022/01/17 11:41:01;;;;;;;4.53;3.20;;;10.90;92.10;;;;;;5012108;28;20026;-74
2022/01/17 11:43:35;;;;;;;3.97;2.95;;;11.00;92.10;;;;;;5009623;28;20038;-73
2022/01/17 11:46:20;;;;;;;5.38;2.90;;;11.00;91.90;;;;;;5012454;28;20504;-79
2022/01/17 11:49:08;;;;;;;4.55;3.08;;;11.00;91.90;;;;;;5025324;28;20036;-80
2022/01/17 11:51:46;;;;;;;4.53;2.92;;;11.00;91.70;;;;;;5001065;28;20054;-73
2022/01/17 11:54:26;;;;;;;4.65;3.20;;;11.10;91.70;;;;;;4999942;28;20046;-73
2022/01/17 11:56:57;;;;;;;4.15;2.88;;;11.20;92.10;;;;;;5016500;28;20036;-77
2022/01/17 11:59:42;;;;;;;4.43;3.20;;;11.30;91.50;;;;;;5014136;28;20543;-76
2022/01/17 12:02:19;;;;;;;4.07;3.30;;;11.60;92.10;;;;;;4998809;28;20109;-74
2022/01/17 12:05:11;;;;;;;3.50;2.85;;;11.80;91.80;;;;;;5013448;28;20030;-69
2022/01/17 12:07:38;;;;;;;3.83;2.90;;;11.90;91.30;;;;;;5006912;28;20034;-69
2022/01/17 12:10:12;;;;;;;3.70;3.00;;;12.00;91.10;;;;;;5020346;28;20036;-69
2022/01/17 12:12:38;;;;;;;4.38;3.30;;;12.10;91.30;;;;;;5010150;28;20029;-69
2022/01/17 12:15:10;;;;;;;3.70;2.65;;;12.50;91.40;;;;;;5009356;28;20069;-67
2022/01/17 12:17:36;;;;;;;4.33;2.93;;;12.80;91.20;;;;;;5009154;28;20041;-70
2022/01/17 12:20:09;;;;;;;3.30;2.70;;;13.40;90.80;;;;;;5020117;28;20272;-69
2022/01/17 12:22:46;;;;;;;3.95;3.05;;;13.60;90.00;;;;;;5018476;28;20570;-69
2022/01/17 12:25:21;;;;;;;3.40;3.05;;;14.20;90.20;;;;;;5020406;28;20538;-70
2022/01/17 12:27:49;;;;;;;5.28;2.92;;;14.70;87.80;;;;;;5019403;28;20109;-70
2022/01/17 12:30:15;;;;;;;3.53;2.95;;;15.20;88.40;;;;;;5019105;28;20030;-70
2022/01/17 12:32:45;;;;;;;4.63;3.50;;;15.50;84.90;;;;;;5015805;28;20439;-70
2022/01/17 12:35:23;;;;;;;4.57;3.42;;;16.10;85.90;;;;;;5009647;28;20054;-69
2022/01/17 12:37:50;;;;;;;4.75;3.53;;;16.60;83.20;;;;;;5005551;28;20026;-70
2022/01/17 12:40:30;;;;;;;3.75;3.00;;;16.70;79.60;;;;;;5007975;28;20507;-70
2022/01/17 12:43:14;;;;;;;3.58;3.22;;;16.30;78.90;;;;;;4997563;28;20096;-70
2022/01/17 12:45:43;;;;;;;3.42;3.03;;;16.20;81.40;;;;;;5011061;28;20111;-69
2022/01/17 12:48:12;;;;;;;4.15;3.10;;;16.70;80.50;;;;;;5007911;28;20014;-69
2022/01/17 12:50:40;;;;;;;4.38;3.58;;;16.40;75.80;;;;;;5008298;28;20500;-69
2022/01/17 12:53:08;;;;;;;5.28;3.10;;;16.30;78.00;;;;;;5006800;28;20511;-70
2022/01/17 12:55:49;;;;;;;3.90;3.00;;;16.30;77.70;;;;;;5007288;28;20042;-73
2022/01/17 12:58:32;;;;;;;3.38;3.05;;;16.00;77.20;;;;;;5009142;28;20030;-70
2022/01/17 13:01:01;;;;;;;3.50;2.88;;;15.60;78.10;;;;;;4998045;28;20041;-69
2022/01/17 13:03:29;;;;;;;4.82;3.15;;;15.70;79.30;;;;;;4995584;28;20059;-71
2022/01/17 13:05:56;;;;;;;4.45;3.30;;;15.50;77.40;;;;;;5007854;28;20022;-70
2022/01/17 13:08:23;;;;;;;4.22;3.22;;;15.20;77.60;;;;;;5007563;28;20042;-70
2022/01/17 13:10:49;;;;;;;3.58;3.20;;;15.20;79.30;;;;;;5007317;28;20026;-69
2022/01/17 13:13:16;;;;;;;3.38;3.08;;;16.00;80.10;;;;;;5009009;28;20029;-71
2022/01/17 13:15:52;;;;;;;4.10;2.55;;;16.10;76.10;;;;;;5010637;28;20431;-69
2022/01/17 13:18:18;;;;;;;3.47;2.60;;;15.90;79.20;;;;;;5004504;28;20030;-70
2022/01/17 13:20:43;;;;;;;2.70;2.40;;;15.80;75.80;;;;;;5010508;28;20033;-69
2022/01/17 13:23:14;;;;;;;8.23;2.35;;;15.40;74.90;;;;;;5017974;28;20145;-69
2022/01/17 13:25:40;;;;;;;3.53;2.33;;;16.40;81.40;;;;;;5006637;28;20037;-70